createdAt,value
2019-03-24T00:02:12.581Z,101346.04
2019-03-24T00:05:03.090Z,101337.43
2019-03-24T00:07:53.860Z,101334.91
2019-03-24T00:10:45.583Z,101335.52
2019-03-24T00:13:36.130Z,101331.31
2019-03-24T00:16:26.934Z,101328.23
2019-03-24T00:19:18.999Z,101336.75
2019-03-24T00:22:09.861Z,101335.52
2019-03-24T00:25:00.730Z,101341.42
2019-03-24T00:27:51.552Z,101336.27
2019-03-24T00:30:42.071Z,101333.96
2019-03-24T00:33:32.853Z,101330.72
2019-03-24T00:36:23.550Z,101337.60
2019-03-24T00:39:14.153Z,101341.77
2019-03-24T00:42:05.111Z,101333.96
2019-03-24T00:44:56.339Z,101326.79
2019-03-24T00:47:49.441Z,101324.23
2019-03-24T00:50:39.988Z,101330.48
2019-03-24T00:53:31.368Z,101319.02
2019-03-24T00:56:22.257Z,101321.53
2019-03-24T00:59:12.873Z,101325.92
2019-03-24T01:02:04.880Z,101324.45
2019-03-24T01:04:55.480Z,101316.28
2019-03-24T01:07:47.189Z,101324.20
2019-03-24T01:10:39.040Z,101316.28
2019-03-24T01:13:29.806Z,101311.97
2019-03-24T01:16:20.725Z,101313.68
2019-03-24T01:19:11.507Z,101312.13
2019-03-24T01:22:02.494Z,101313.68
2019-03-24T01:24:53.228Z,101316.28
2019-03-24T01:27:44.064Z,101314.42
2019-03-24T01:30:34.717Z,101307.48
2019-03-24T01:33:25.589Z,101309.27
2019-03-24T01:36:16.332Z,101307.50
2019-03-24T01:39:07.898Z,101303.08
2019-03-24T01:41:58.765Z,101297.15
2019-03-24T01:44:49.439Z,101297.72
2019-03-24T01:47:40.089Z,101307.09
2019-03-24T01:50:31.113Z,101299.45
2019-03-24T01:53:21.774Z,101293.83
2019-03-24T01:56:12.569Z,101301.47
2019-03-24T01:59:03.394Z,101303.77
2019-03-24T02:01:53.911Z,101301.19
2019-03-24T02:04:44.553Z,101296.88
2019-03-24T02:07:35.357Z,101299.61
2019-03-24T02:10:25.834Z,101300.54
2019-03-24T02:13:16.843Z,101305.02
2019-03-24T02:16:09.526Z,101305.55
2019-03-24T02:19:00.343Z,101308.13
2019-03-24T02:21:51.227Z,101305.77
2019-03-24T02:24:42.122Z,101310.70
2019-03-24T02:27:32.904Z,101315.17
2019-03-24T02:30:24.334Z,101317.94
2019-03-24T02:33:14.985Z,101320.46
2019-03-24T02:36:06.070Z,101312.69
2019-03-24T02:38:56.638Z,101310.52
2019-03-24T02:41:47.269Z,101314.52
2019-03-24T02:44:38.273Z,101307.69
2019-03-24T02:47:29.075Z,101308.93
2019-03-24T02:50:19.602Z,101305.11
2019-03-24T02:53:10.600Z,101316.83
2019-03-24T02:56:01.419Z,101313.19
2019-03-24T02:58:52.247Z,101306.91
2019-03-24T03:01:43.027Z,101307.33
2019-03-24T03:04:33.700Z,101310.97
2019-03-24T03:07:24.498Z,101315.84
2019-03-24T03:10:15.386Z,101310.28
2019-03-24T03:13:06.530Z,101319.13
2019-03-24T03:15:57.655Z,101315.30
2019-03-24T03:18:48.772Z,101318.16
2019-03-24T03:21:39.621Z,101321.37
2019-03-24T03:24:30.391Z,101328.15
2019-03-24T03:27:20.900Z,101324.73
2019-03-24T03:30:12.635Z,101329.63
2019-03-24T03:33:03.389Z,101332.98
2019-03-24T03:35:54.299Z,101328.56
2019-03-24T03:38:45.153Z,101338.69
2019-03-24T03:41:35.868Z,101334.23
2019-03-24T03:44:26.401Z,101331.73
2019-03-24T03:47:17.044Z,101333.62
2019-03-24T03:50:07.929Z,101330.84
2019-03-24T03:52:58.694Z,101339.74
2019-03-24T03:55:49.758Z,101338.81
2019-03-24T03:58:40.697Z,101341.86
2019-03-24T04:01:31.527Z,101346.05
2019-03-24T04:04:22.387Z,101349.87
2019-03-24T04:07:12.927Z,101347.58
2019-03-24T04:10:03.772Z,101348.81
2019-03-24T04:12:54.582Z,101354.76
2019-03-24T04:15:45.065Z,101344.95
2019-03-24T04:18:35.653Z,101346.15
2019-03-24T04:21:26.400Z,101342.17
2019-03-24T04:24:17.307Z,101348.30
2019-03-24T04:27:07.863Z,101351.72
2019-03-24T04:29:58.658Z,101353.13
2019-03-24T04:32:50.499Z,101350.19
2019-03-24T04:35:41.439Z,101358.53
2019-03-24T04:38:32.138Z,101348.61
2019-03-24T04:41:22.889Z,101353.87
2019-03-24T04:44:13.910Z,101328.75
2019-03-24T04:47:04.955Z,101348.67
2019-03-24T04:49:56.162Z,101363.25
2019-03-24T04:52:47.049Z,101364.34
2019-03-24T04:55:37.995Z,101367.02
2019-03-24T04:58:28.790Z,101365.77
2019-03-24T05:01:19.664Z,101363.20
2019-03-24T05:04:10.428Z,101368.16
2019-03-24T05:07:01.009Z,101370.00
2019-03-24T05:09:51.761Z,101375.84
2019-03-24T05:12:42.634Z,101378.30
2019-03-24T05:15:33.591Z,101375.34
2019-03-24T05:18:24.544Z,101379.17
2019-03-24T05:21:15.543Z,101351.78
2019-03-24T05:24:06.212Z,101381.09
2019-03-24T05:26:57.168Z,101377.40
2019-03-24T05:29:48.157Z,101383.61
2019-03-24T05:32:39.443Z,101387.13
2019-03-24T05:35:30.474Z,101390.98
2019-03-24T05:38:21.269Z,101391.14
2019-03-24T05:41:12.113Z,101396.48
2019-03-24T05:44:04.323Z,101389.98
2019-03-24T05:46:55.127Z,101398.41
2019-03-24T05:49:45.917Z,101398.60
2019-03-24T05:52:36.755Z,101402.17
2019-03-24T05:55:29.439Z,101404.23
2019-03-24T05:58:20.164Z,101396.42
2019-03-24T06:01:11.105Z,101395.67
2019-03-24T06:04:02.035Z,101404.97
2019-03-24T06:06:52.842Z,101404.88
2019-03-24T06:09:43.628Z,101399.72
2019-03-24T06:12:34.467Z,101396.30
2019-03-24T06:15:25.407Z,101394.97
2019-03-24T06:18:16.338Z,101396.52
2019-03-24T06:21:07.242Z,101393.63
2019-03-24T06:23:58.292Z,101392.72
2019-03-24T06:26:49.268Z,101395.61
2019-03-24T06:29:40.228Z,101400.02
2019-03-24T06:32:31.007Z,101400.98
2019-03-24T06:35:22.171Z,101400.13
2019-03-24T06:38:12.929Z,101402.33
2019-03-24T06:41:03.775Z,101409.97
2019-03-24T06:43:54.644Z,101408.06
2019-03-24T06:46:45.667Z,101408.36
2019-03-24T06:49:36.434Z,101410.00
2019-03-24T06:52:27.538Z,101387.41
2019-03-24T06:55:18.742Z,101409.00
2019-03-24T06:58:10.600Z,101408.39
2019-03-24T07:01:01.458Z,101414.46
2019-03-24T07:03:52.094Z,101409.47
2019-03-24T07:06:43.127Z,101415.55
2019-03-24T07:09:34.225Z,101412.86
2019-03-24T07:12:25.148Z,101413.09
2019-03-24T07:15:15.906Z,101416.56
2019-03-24T07:18:08.639Z,101417.53
2019-03-24T07:20:59.685Z,101423.26
2019-03-24T07:23:50.678Z,101421.33
2019-03-24T07:26:41.664Z,101421.56
2019-03-24T07:29:32.510Z,101421.31
2019-03-24T07:32:23.465Z,101421.43
2019-03-24T07:35:14.099Z,101412.25
2019-03-24T07:38:05.195Z,101412.19
2019-03-24T07:40:55.950Z,101408.81
2019-03-24T07:43:47.055Z,101401.35
2019-03-24T07:46:37.798Z,101396.36
2019-03-24T07:49:29.558Z,101403.56
2019-03-24T07:52:20.896Z,101398.65
2019-03-24T07:55:12.525Z,101401.24
2019-03-24T07:58:03.708Z,101392.55
2019-03-24T08:00:55.394Z,101401.38
2019-03-24T08:03:46.833Z,101401.47
2019-03-24T08:06:38.431Z,101390.92
2019-03-24T08:09:29.525Z,101396.50
2019-03-24T08:12:20.916Z,101395.45
2019-03-24T08:15:12.055Z,101392.31
2019-03-24T08:18:03.413Z,101390.48
2019-03-24T08:20:55.118Z,101388.17
2019-03-24T08:23:46.668Z,101390.88
2019-03-24T08:26:38.025Z,101388.84
2019-03-24T08:29:29.484Z,101389.44
2019-03-24T08:32:20.202Z,101383.72
2019-03-24T08:35:10.941Z,101383.59
2019-03-24T08:38:01.513Z,101389.31
2019-03-24T08:40:52.098Z,101381.73
2019-03-24T08:43:42.833Z,101382.03
2019-03-24T08:46:33.733Z,101382.22
2019-03-24T08:49:24.263Z,101379.77
2019-03-24T08:52:15.042Z,101386.58
2019-03-24T08:55:05.803Z,101382.53
2019-03-24T08:57:56.797Z,101383.97
2019-03-24T09:00:47.354Z,101376.37
2019-03-24T09:03:38.388Z,101383.30
2019-03-24T09:06:29.215Z,101372.19
2019-03-24T09:09:20.313Z,101375.70
2019-03-24T09:12:11.008Z,101369.45
2019-03-24T09:15:01.930Z,101368.86
2019-03-24T09:17:56.161Z,101366.94
2019-03-24T09:20:48.350Z,101365.49
2019-03-24T09:23:40.596Z,101354.12
2019-03-24T09:26:32.185Z,101361.63
2019-03-24T09:29:23.737Z,101356.59
2019-03-24T09:32:15.122Z,101365.31
2019-03-24T09:35:07.173Z,101359.89
2019-03-24T09:37:58.745Z,101368.08
2019-03-24T09:40:49.696Z,101362.24
2019-03-24T09:43:40.578Z,101366.83
2019-03-24T09:46:31.153Z,101353.19
2019-03-24T09:49:21.753Z,101352.41
2019-03-24T09:52:12.255Z,101361.70
2019-03-24T09:55:03.202Z,101349.66
2019-03-24T09:57:53.956Z,101347.94
2019-03-24T10:00:44.829Z,101339.61
2019-03-24T10:03:35.699Z,101328.95
2019-03-24T10:06:26.322Z,101328.95
2019-03-24T10:09:17.109Z,101321.86
2019-03-24T10:12:08.326Z,101321.86
2019-03-24T10:14:59.280Z,101318.25
2019-03-24T10:17:50.258Z,101316.62
2019-03-24T10:20:41.183Z,101316.88
2019-03-24T10:23:32.365Z,101308.41
2019-03-24T10:26:23.370Z,101310.49
2019-03-24T10:29:14.652Z,101289.47
2019-03-24T10:32:05.197Z,101289.47
2019-03-24T10:34:55.785Z,101297.28
2019-03-24T10:37:46.591Z,101304.22
2019-03-24T10:40:37.405Z,101299.23
2019-03-24T10:43:28.091Z,101296.53
2019-03-24T10:46:18.883Z,101289.48
2019-03-24T10:49:09.677Z,101283.31
2019-03-24T10:52:00.351Z,101285.96
2019-03-24T10:54:51.105Z,101276.55
2019-03-24T10:57:42.060Z,101274.78
2019-03-24T11:00:43.369Z,101275.85
2019-03-24T11:03:34.322Z,101265.15
2019-03-24T11:06:25.114Z,101266.05
2019-03-24T11:09:15.941Z,101258.59
2019-03-24T11:12:06.774Z,101259.70
2019-03-24T11:14:57.316Z,101259.41
2019-03-24T11:17:48.174Z,101253.11
2019-03-24T11:20:38.774Z,101251.64
2019-03-24T11:23:29.507Z,101248.52
2019-03-24T11:26:20.532Z,101241.01
2019-03-24T11:29:11.323Z,101237.06
2019-03-24T11:32:02.470Z,101237.78
2019-03-24T11:34:53.582Z,101238.03
2019-03-24T11:37:45.842Z,101235.62
2019-03-24T11:40:36.930Z,101235.30
2019-03-24T11:43:27.953Z,101229.09
2019-03-24T11:46:18.839Z,101226.95
2019-03-24T11:49:16.883Z,101225.53
2019-03-24T11:52:07.647Z,101217.77
2019-03-24T11:54:58.495Z,101210.95
2019-03-24T11:57:51.448Z,101207.07
2019-03-24T12:00:41.813Z,101199.94
2019-03-24T12:03:32.582Z,101197.58
2019-03-24T12:06:23.670Z,101194.06
2019-03-24T12:09:14.646Z,101195.53
2019-03-24T12:12:05.745Z,101192.70
2019-03-24T12:14:56.524Z,101189.56
2019-03-24T12:17:47.468Z,101192.59
2019-03-24T12:20:38.208Z,101191.41
2019-03-24T12:23:28.910Z,101193.66
2019-03-24T12:26:19.690Z,101191.81
2019-03-24T12:29:10.325Z,101183.34
2019-03-24T12:32:00.887Z,101182.73
2019-03-24T12:34:51.773Z,101180.23
2019-03-24T12:37:42.573Z,101180.29
2019-03-24T12:40:33.508Z,101174.87
2019-03-24T12:43:24.318Z,101167.94
2019-03-24T12:46:15.434Z,101161.05
2019-03-24T12:49:06.473Z,101163.73
2019-03-24T12:51:57.361Z,101167.16
2019-03-24T12:54:48.118Z,101171.59
2019-03-24T12:57:38.912Z,101153.73
2019-03-24T13:00:40.216Z,101160.31
2019-03-24T13:03:30.923Z,101153.22
2019-03-24T13:06:21.623Z,101159.83
2019-03-24T13:09:12.441Z,101155.41
2019-03-24T13:12:03.282Z,101151.14
2019-03-24T13:14:54.343Z,101149.44
2019-03-24T13:17:46.224Z,101152.03
2019-03-24T13:20:38.672Z,101144.92
2019-03-24T13:23:29.872Z,101140.27
2019-03-24T13:26:21.112Z,101139.53
2019-03-24T13:29:12.049Z,101136.84
2019-03-24T13:32:03.034Z,101124.27
2019-03-24T13:34:53.771Z,101130.99
2019-03-24T13:37:44.778Z,101131.34
2019-03-24T13:40:35.330Z,101124.13
2019-03-24T13:43:25.885Z,101128.13
2019-03-24T13:46:17.530Z,101120.58
2019-03-24T13:49:08.437Z,101120.70
2019-03-24T13:52:00.624Z,101120.08
2019-03-24T13:54:51.407Z,101112.86
2019-03-24T13:57:42.248Z,101115.06
2019-03-24T14:00:33.216Z,101113.50
2019-03-24T14:03:24.093Z,101103.56
2019-03-24T14:06:15.046Z,101111.54
2019-03-24T14:09:07.623Z,101098.42
2019-03-24T14:11:58.302Z,101094.64
2019-03-24T14:14:49.145Z,101094.13
2019-03-24T14:17:40.001Z,101090.09
2019-03-24T14:20:42.487Z,101089.14
2019-03-24T14:23:23.514Z,101082.70
2019-03-24T14:26:14.705Z,101085.28
2019-03-24T14:29:05.776Z,101081.11
2019-03-24T14:31:56.760Z,101084.05
2019-03-24T14:34:47.758Z,101079.77
2019-03-24T14:37:38.290Z,101083.80
2019-03-24T14:40:29.105Z,101076.63
2019-03-24T14:43:19.953Z,101075.91
2019-03-24T14:46:10.667Z,101077.94
2019-03-24T14:49:01.461Z,101070.11
2019-03-24T14:51:52.308Z,101070.41
2019-03-24T14:54:43.102Z,101061.25
2019-03-24T14:57:33.805Z,101057.69
2019-03-24T15:00:35.035Z,101052.16
2019-03-24T15:03:25.637Z,101053.61
2019-03-24T15:06:16.396Z,101054.77
2019-03-24T15:09:08.144Z,101057.70
2019-03-24T15:11:58.644Z,101057.83
2019-03-24T15:14:49.507Z,101054.16
2019-03-24T15:17:39.955Z,101057.63
2019-03-24T15:20:30.761Z,101058.22
2019-03-24T15:23:21.585Z,101048.55
2019-03-24T15:26:12.613Z,101045.15
2019-03-24T15:29:03.563Z,101046.06
2019-03-24T15:31:54.470Z,101046.69
2019-03-24T15:34:45.093Z,101042.55
2019-03-24T15:37:35.897Z,101042.91
2019-03-24T15:40:27.649Z,101037.89
2019-03-24T15:43:18.387Z,101036.72
2019-03-24T15:46:09.293Z,101037.19
2019-03-24T15:49:00.128Z,101037.70
2019-03-24T15:51:50.645Z,101036.13
2019-03-24T15:54:41.959Z,101034.06
2019-03-24T15:57:32.902Z,101035.64
2019-03-24T16:00:41.437Z,101028.93
2019-03-24T16:03:32.162Z,101026.48
2019-03-24T16:06:23.069Z,101025.14
2019-03-24T16:09:13.865Z,101031.88
2019-03-24T16:12:04.675Z,101022.14
2019-03-24T16:14:55.524Z,101004.48
2019-03-24T16:17:46.373Z,101029.73
2019-03-24T16:20:37.191Z,101024.44
2019-03-24T16:23:28.519Z,101032.73
2019-03-24T16:26:19.319Z,101039.16
2019-03-24T16:29:10.215Z,101037.82
2019-03-24T16:32:01.312Z,101038.87
2019-03-24T16:34:52.434Z,101041.20
2019-03-24T16:37:44.107Z,101044.98
2019-03-24T16:40:34.900Z,101042.14
2019-03-24T16:43:26.691Z,101040.69
2019-03-24T16:46:17.600Z,101036.06
2019-03-24T16:49:08.395Z,101035.52
2019-03-24T16:51:59.097Z,101034.30
2019-03-24T16:54:49.933Z,101039.58
2019-03-24T16:57:40.889Z,101039.68
2019-03-24T17:00:31.770Z,101036.38
2019-03-24T17:03:22.564Z,101037.83
2019-03-24T17:06:13.478Z,101042.53
2019-03-24T17:09:04.782Z,101047.01
2019-03-24T17:11:57.036Z,101043.08
2019-03-24T17:14:48.788Z,101043.28
2019-03-24T17:17:39.529Z,101044.63
2019-03-24T17:20:30.157Z,101043.28
2019-03-24T17:23:21.297Z,101044.02
2019-03-24T17:26:12.025Z,101040.89
2019-03-24T17:29:02.810Z,101042.09
2019-03-24T17:31:54.008Z,101041.27
2019-03-24T17:34:44.735Z,101039.20
2019-03-24T17:37:35.674Z,101040.08
2019-03-24T17:40:26.484Z,101039.42
2019-03-24T17:43:17.419Z,101040.87
2019-03-24T17:46:08.199Z,101045.30
2019-03-24T17:48:58.840Z,101047.68
2019-03-24T17:52:00.241Z,101044.17
2019-03-24T17:54:42.231Z,101049.70
2019-03-24T17:57:33.105Z,101050.57
2019-03-24T18:00:38.105Z,101051.49
2019-03-24T18:03:30.820Z,101056.67
2019-03-24T18:06:21.643Z,101053.15
2019-03-24T18:09:12.461Z,101046.93
2019-03-24T18:12:03.420Z,101052.12
2019-03-24T18:14:54.218Z,101053.28
2019-03-24T18:17:45.191Z,101048.50
2019-03-24T18:20:36.226Z,101049.63
2019-03-24T18:23:27.196Z,101046.22
2019-03-24T18:26:18.060Z,101054.42
2019-03-24T18:29:08.878Z,101053.86
2019-03-24T18:31:59.694Z,101056.92
2019-03-24T18:34:51.106Z,101061.09
2019-03-24T18:37:41.838Z,101059.95
2019-03-24T18:40:32.854Z,101063.75
2019-03-24T18:43:23.599Z,101062.41
2019-03-24T18:46:15.039Z,101068.66
2019-03-24T18:49:05.749Z,101057.61
2019-03-24T18:51:56.437Z,101063.36
2019-03-24T18:54:47.248Z,101064.84
2019-03-24T18:57:38.101Z,101070.05
2019-03-24T19:00:28.910Z,101064.70
2019-03-24T19:03:19.907Z,101070.73
2019-03-24T19:06:10.930Z,101072.54
2019-03-24T19:09:02.164Z,101078.08
2019-03-24T19:11:53.457Z,101075.41
2019-03-24T19:14:44.322Z,101076.08
2019-03-24T19:17:34.932Z,101073.52
2019-03-24T19:20:26.119Z,101070.73
2019-03-24T19:23:16.590Z,101068.91
2019-03-24T19:26:07.442Z,101066.72
2019-03-24T19:28:58.366Z,101068.34
2019-03-24T19:31:49.253Z,101067.19
2019-03-24T19:34:40.125Z,101064.43
2019-03-24T19:37:33.174Z,101065.30
2019-03-24T19:40:30.150Z,101058.84
2019-03-24T19:43:21.054Z,101068.31
2019-03-24T19:46:11.602Z,101070.12
2019-03-24T19:49:02.474Z,101063.53
2019-03-24T19:51:53.361Z,101070.62
2019-03-24T19:54:44.305Z,101065.03
2019-03-24T19:57:35.047Z,101060.64
2019-03-24T20:00:25.988Z,101058.70
2019-03-24T20:03:16.843Z,101058.34
2019-03-24T20:06:07.719Z,101056.09
2019-03-24T20:08:58.512Z,101050.73
2019-03-24T20:11:49.924Z,101052.75
2019-03-24T20:14:40.792Z,101051.39
2019-03-24T20:17:31.777Z,101047.11
2019-03-24T20:20:22.580Z,101046.95
2019-03-24T20:23:13.520Z,101053.83
2019-03-24T20:26:05.851Z,101046.19
2019-03-24T20:28:56.632Z,101043.30
2019-03-24T20:31:47.340Z,101034.69
2019-03-24T20:34:38.177Z,101034.09
2019-03-24T20:37:28.751Z,101033.23
2019-03-24T20:40:19.733Z,101028.46
2019-03-24T20:43:11.610Z,101027.47
2019-03-24T20:46:03.854Z,101023.36
2019-03-24T20:48:54.650Z,101026.02
2019-03-24T20:51:45.300Z,101026.09
2019-03-24T20:54:36.151Z,101033.05
2019-03-24T20:57:27.248Z,101032.68
2019-03-24T21:00:22.897Z,101034.78
2019-03-24T21:03:13.520Z,101034.99
2019-03-24T21:06:04.216Z,101033.27
2019-03-24T21:08:55.063Z,101040.47
2019-03-24T21:11:45.900Z,101044.66
2019-03-24T21:14:36.958Z,101044.71
2019-03-24T21:17:27.729Z,101052.17
2019-03-24T21:20:19.199Z,101052.45
2019-03-24T21:23:10.074Z,101046.44
2019-03-24T21:26:01.040Z,101046.73
2019-03-24T21:28:51.855Z,101049.88
2019-03-24T21:31:42.886Z,101043.66
2019-03-24T21:34:33.827Z,101036.41
2019-03-24T21:37:24.804Z,101035.85
2019-03-24T21:40:15.554Z,101038.72
2019-03-24T21:43:06.804Z,101031.17
2019-03-24T21:45:57.658Z,101023.45
2019-03-24T21:48:48.224Z,101023.05
2019-03-24T21:51:38.760Z,101022.12
2019-03-24T21:54:29.528Z,101017.52
2019-03-24T21:57:20.282Z,101019.83
2019-03-24T22:00:11.239Z,101023.07
2019-03-24T22:03:02.194Z,101021.36
2019-03-24T22:05:53.527Z,101026.51
2019-03-24T22:08:44.330Z,101020.40
2019-03-24T22:11:35.117Z,101023.17
2019-03-24T22:14:26.155Z,101015.05
2019-03-24T22:17:17.245Z,101021.93
2019-03-24T22:20:09.208Z,101019.26
2019-03-24T22:23:00.145Z,101026.30
2019-03-24T22:25:51.043Z,101015.36
2019-03-24T22:28:42.221Z,101015.36
2019-03-24T22:31:32.968Z,101022.87
2019-03-24T22:34:23.944Z,101021.94
2019-03-24T22:37:15.981Z,101018.77
2019-03-24T22:40:08.356Z,101016.19
2019-03-24T22:42:59.201Z,101009.31
2019-03-24T22:45:50.088Z,101005.86
2019-03-24T22:48:41.803Z,101011.72
2019-03-24T22:51:32.408Z,101013.31
2019-03-24T22:54:23.041Z,101007.70
2019-03-24T22:57:14.456Z,101011.80
2019-03-24T23:00:06.937Z,101016.02
2019-03-24T23:02:58.527Z,101008.58
2019-03-24T23:05:49.352Z,101019.26
2019-03-24T23:08:40.203Z,101023.06
2019-03-24T23:11:31.172Z,101024.40
2019-03-24T23:14:21.993Z,101019.83
2019-03-24T23:17:12.921Z,101013.34
2019-03-24T23:20:03.924Z,101009.34
2019-03-24T23:22:54.883Z,101009.44
2019-03-24T23:25:45.993Z,101003.03
2019-03-24T23:28:36.732Z,101006.67
2019-03-24T23:31:27.598Z,101001.32
2019-03-24T23:34:18.435Z,100999.20
2019-03-24T23:37:09.885Z,100991.95
2019-03-24T23:40:00.727Z,101005.60
2019-03-24T23:42:52.209Z,100997.69
2019-03-24T23:45:43.015Z,100999.70
2019-03-24T23:48:33.556Z,100998.52
2019-03-24T23:51:24.326Z,100998.83
2019-03-24T23:54:22.505Z,100998.44
2019-03-24T23:57:07.400Z,100993.50
2019-03-24T23:59:58.129Z,100996.16
